Time;durP1;ratioP1;P1;durP2;ratioP2;P2;SDS_P1;SDS_P2;PMS_P1;PMS_P2;Temp;Humidity;BMP_temperature;BMP_pressure;BME280_temperature;BME280_humidity;BME280_pressure;Samples;Min_cycle;Max_cycle;Signal;HPM_P1;HPM_P2
2021/05/30 00:00:32;;;;;;;7.28;3.80;;;11.40;99.90;;;;;;5117681;27;20184;-64
2021/05/30 00:02:58;;;;;;;18.10;5.50;;;11.40;99.90;;;;;;5117556;27;20191;-63
2021/05/30 00:05:24;;;;;;;11.45;3.95;;;11.30;99.90;;;;;;5135473;27;20183;-63
2021/05/30 00:07:53;;;;;;;8.63;3.90;;;11.30;99.90;;;;;;5136468;27;20175;-63
2021/05/30 00:10:19;;;;;;;10.23;4.20;;;11.30;99.90;;;;;;5118018;27;20616;-63
2021/05/30 00:12:45;;;;;;;8.48;4.28;;;11.30;99.90;;;;;;5136368;27;20175;-63
2021/05/30 00:15:11;;;;;;;9.30;3.92;;;11.30;99.90;;;;;;5135787;27;20568;-62
2021/05/30 00:17:38;;;;;;;7.03;3.97;;;11.30;99.90;;;;;;5136258;27;20168;-63
2021/05/30 00:20:05;;;;;;;13.63;4.18;;;11.20;99.90;;;;;;5117731;27;20523;-63
2021/05/30 00:22:31;;;;;;;11.38;4.38;;;11.20;99.90;;;;;;5136065;27;20651;-63
2021/05/30 00:24:57;;;;;;;8.25;3.80;;;11.20;99.90;;;;;;5136214;27;20168;-63
2021/05/30 00:27:23;;;;;;;9.95;4.53;;;11.20;99.90;;;;;;5135816;27;20164;-63
2021/05/30 00:29:50;;;;;;;12.25;5.07;;;11.10;99.90;;;;;;5136181;27;20172;-63
2021/05/30 00:32:16;;;;;;;8.50;3.67;;;11.10;99.90;;;;;;5135628;27;20632;-63
2021/05/30 00:34:42;;;;;;;8.18;5.15;;;11.10;99.90;;;;;;5135549;27;20219;-63
2021/05/30 00:37:08;;;;;;;11.70;4.57;;;11.00;99.90;;;;;;5135623;27;20188;-63
2021/05/30 00:39:34;;;;;;;11.00;4.50;;;11.00;99.90;;;;;;5136059;27;20171;-63
2021/05/30 00:42:01;;;;;;;9.38;3.95;;;10.90;99.90;;;;;;5135719;27;20176;-63
2021/05/30 00:44:28;;;;;;;9.30;4.68;;;10.90;99.90;;;;;;5117215;27;20517;-63
2021/05/30 00:46:55;;;;;;;9.85;4.53;;;10.90;99.90;;;;;;5134960;27;20191;-63
2021/05/30 00:49:22;;;;;;;9.50;4.10;;;10.90;99.90;;;;;;5135445;27;20531;-63
2021/05/30 00:51:48;;;;;;;8.48;4.57;;;10.90;99.90;;;;;;5116706;27;20176;-63
2021/05/30 00:54:15;;;;;;;9.52;4.45;;;10.80;99.90;;;;;;5135324;27;20526;-63
2021/05/30 00:56:41;;;;;;;11.00;4.60;;;10.80;99.90;;;;;;5117259;27;20223;-63
2021/05/30 00:59:08;;;;;;;13.50;5.97;;;10.80;99.90;;;;;;5135322;27;20616;-63
2021/05/30 01:01:34;;;;;;;29.92;5.10;;;10.70;99.90;;;;;;5135307;27;20179;-63
2021/05/30 01:04:00;;;;;;;14.57;4.85;;;10.70;99.90;;;;;;5117117;27;20172;-63
2021/05/30 01:06:27;;;;;;;9.70;4.72;;;10.60;99.90;;;;;;5116101;27;20191;-63
2021/05/30 01:08:53;;;;;;;8.68;4.55;;;10.60;99.90;;;;;;5134520;27;20184;-63
2021/05/30 01:11:22;;;;;;;11.43;4.15;;;10.60;99.90;;;;;;5099589;27;20167;-63
2021/05/30 01:13:52;;;;;;;12.40;4.45;;;10.60;99.90;;;;;;5134924;27;20617;-63
2021/05/30 01:16:18;;;;;;;9.70;4.57;;;10.60;99.90;;;;;;5117068;27;20200;-63
2021/05/30 01:18:44;;;;;;;8.93;4.15;;;10.50;99.90;;;;;;5135108;27;20156;-63
2021/05/30 01:21:11;;;;;;;8.18;4.18;;;10.50;99.90;;;;;;5116031;27;20192;-63
2021/05/30 01:23:37;;;;;;;10.93;4.47;;;10.50;99.90;;;;;;5134832;27;20168;-63
2021/05/30 01:26:03;;;;;;;9.60;4.35;;;10.50;99.90;;;;;;5116725;27;20175;-63
2021/05/30 01:28:29;;;;;;;16.98;5.03;;;10.40;99.90;;;;;;5134013;27;20651;-63
2021/05/30 01:30:55;;;;;;;11.40;4.82;;;10.40;99.90;;;;;;5134361;27;20188;-63
2021/05/30 01:33:21;;;;;;;10.30;4.93;;;10.40;99.90;;;;;;5134346;27;20171;-63
2021/05/30 01:35:47;;;;;;;12.38;6.00;;;10.40;99.90;;;;;;5134590;27;20726;-62
2021/05/30 01:38:13;;;;;;;12.32;4.82;;;10.30;99.90;;;;;;5116397;27;20168;-63
2021/05/30 01:40:40;;;;;;;9.52;4.45;;;10.30;99.90;;;;;;5134702;27;20171;-63
2021/05/30 01:43:06;;;;;;;10.77;5.72;;;10.30;99.90;;;;;;5134611;27;20172;-63
2021/05/30 01:45:33;;;;;;;14.35;5.25;;;10.30;99.90;;;;;;5134056;27;20184;-63
2021/05/30 01:48:00;;;;;;;11.68;5.10;;;10.30;99.90;;;;;;5134541;27;20160;-63
2021/05/30 01:50:27;;;;;;;9.90;4.75;;;10.20;99.90;;;;;;5116098;27;20534;-63
2021/05/30 01:52:54;;;;;;;13.10;6.00;;;10.20;99.90;;;;;;5116228;27;20172;-63
2021/05/30 01:55:29;;;;;;;12.73;4.75;;;10.10;99.90;;;;;;5133544;27;20235;-63
2021/05/30 01:57:56;;;;;;;8.75;4.50;;;10.10;99.90;;;;;;5133700;27;20187;-63
2021/05/30 02:00:23;;;;;;;10.85;4.93;;;10.10;99.90;;;;;;5133321;27;20180;-63
2021/05/30 02:02:51;;;;;;;11.00;5.40;;;10.00;99.90;;;;;;5134076;27;20167;-63
2021/05/30 02:05:17;;;;;;;10.10;4.82;;;10.00;99.90;;;;;;5115852;27;20160;-63
2021/05/30 02:07:43;;;;;;;11.93;4.47;;;10.00;99.90;;;;;;5134069;27;20176;-63
2021/05/30 02:10:13;;;;;;;8.35;4.75;;;10.00;99.90;;;;;;5116100;27;20175;-63
2021/05/30 02:12:39;;;;;;;8.80;4.78;;;10.00;99.90;;;;;;5134061;27;20531;-63
2021/05/30 02:15:06;;;;;;;10.48;4.53;;;10.00;99.90;;;;;;5115277;27;20203;-64
2021/05/30 02:17:33;;;;;;;10.75;4.50;;;9.90;99.90;;;;;;5133584;27;20175;-63
2021/05/30 02:19:59;;;;;;;10.27;4.55;;;9.90;99.90;;;;;;5115889;27;20156;-63
2021/05/30 02:22:25;;;;;;;14.70;4.78;;;9.90;99.90;;;;;;5133256;27;20175;-63
2021/05/30 02:24:51;;;;;;;9.25;4.82;;;9.90;99.90;;;;;;5133974;27;20168;-63
2021/05/30 02:27:18;;;;;;;9.80;5.03;;;9.90;99.90;;;;;;5133575;27;20624;-62
2021/05/30 02:29:44;;;;;;;11.98;4.55;;;9.80;99.90;;;;;;5133688;27;20175;-63
2021/05/30 02:32:12;;;;;;;13.70;6.20;;;9.80;99.90;;;;;;5115574;27;20176;-63
2021/05/30 02:34:41;;;;;;;15.55;4.68;;;9.90;99.90;;;;;;5133356;27;20226;-63
2021/05/30 02:37:15;;;;;;;8.40;5.25;;;9.90;99.90;;;;;;5133310;27;20208;-63
2021/05/30 02:39:41;;;;;;;14.43;4.97;;;9.90;99.90;;;;;;5133858;27;20494;-63
2021/05/30 02:42:07;;;;;;;8.40;4.25;;;10.00;99.90;;;;;;5133594;27;20172;-63
2021/05/30 02:44:34;;;;;;;9.02;5.18;;;10.00;99.90;;;;;;5133239;27;20168;-63
2021/05/30 02:47:00;;;;;;;13.73;4.85;;;10.00;99.90;;;;;;5133622;28;20186;-63
2021/05/30 02:49:26;;;;;;;10.75;5.13;;;10.00;99.90;;;;;;5133395;28;20187;-62
2021/05/30 02:51:52;;;;;;;14.13;5.30;;;10.00;99.90;;;;;;5133639;28;20172;-62
2021/05/30 02:54:19;;;;;;;8.32;4.72;;;9.90;99.90;;;;;;5133194;28;20179;-63
2021/05/30 02:56:45;;;;;;;9.18;4.45;;;9.90;99.90;;;;;;5132965;28;20226;-62
2021/05/30 02:59:11;;;;;;;10.25;4.57;;;9.90;99.90;;;;;;5133625;28;20168;-63
2021/05/30 03:01:37;;;;;;;13.05;4.30;;;9.90;99.90;;;;;;5114987;28;20190;-63
2021/05/30 03:04:04;;;;;;;9.30;4.53;;;9.90;99.90;;;;;;5132678;28;20176;-63
2021/05/30 03:06:30;;;;;;;10.32;4.32;;;9.90;99.90;;;;;;5114407;28;20180;-62
2021/05/30 03:08:58;;;;;;;7.75;4.35;;;10.00;99.90;;;;;;5133548;28;20187;-62
2021/05/30 03:11:24;;;;;;;7.38;4.43;;;10.00;99.90;;;;;;5132599;28;20198;-63
2021/05/30 03:13:50;;;;;;;12.27;5.03;;;10.00;99.90;;;;;;5133024;28;20168;-63
2021/05/30 03:16:17;;;;;;;8.35;4.75;;;10.10;99.90;;;;;;5133255;28;20207;-63
2021/05/30 03:18:43;;;;;;;12.23;4.40;;;10.20;99.90;;;;;;5114176;28;20180;-63
2021/05/30 03:21:09;;;;;;;10.18;5.15;;;10.30;99.90;;;;;;5133318;28;20172;-63
2021/05/30 03:23:35;;;;;;;9.57;5.10;;;10.30;99.90;;;;;;5132964;28;20533;-63
2021/05/30 03:26:01;;;;;;;14.27;5.55;;;10.40;99.90;;;;;;5097921;28;20195;-63
2021/05/30 03:28:27;;;;;;;13.00;5.57;;;10.40;99.90;;;;;;5133107;28;20167;-63
2021/05/30 03:30:54;;;;;;;9.35;5.10;;;10.40;99.90;;;;;;5133269;28;20172;-63
2021/05/30 03:33:20;;;;;;;10.43;5.00;;;10.50;99.90;;;;;;5114741;28;20184;-62
2021/05/30 03:35:46;;;;;;;8.27;4.85;;;10.50;99.90;;;;;;5134957;27;20215;-63
2021/05/30 03:38:14;;;;;;;9.38;5.25;;;10.60;99.90;;;;;;5137189;27;20190;-63
2021/05/30 03:40:47;;;;;;;10.57;5.10;;;10.60;99.90;;;;;;5136907;27;20163;-63
2021/05/30 03:43:14;;;;;;;9.00;4.82;;;10.80;99.90;;;;;;5136475;27;20184;-63
2021/05/30 03:45:40;;;;;;;5.97;4.07;;;10.80;99.90;;;;;;5136386;27;20179;-63
2021/05/30 03:48:06;;;;;;;7.43;4.57;;;10.90;99.90;;;;;;5118648;27;20168;-63
2021/05/30 03:50:33;;;;;;;10.52;5.00;;;10.90;99.90;;;;;;5100879;27;20188;-63
2021/05/30 03:52:59;;;;;;;8.70;4.65;;;11.00;99.90;;;;;;5136762;27;20502;-63
2021/05/30 03:55:26;;;;;;;13.75;5.40;;;11.00;99.90;;;;;;5136220;27;20172;-64
2021/05/30 03:57:52;;;;;;;6.38;4.75;;;11.10;99.90;;;;;;5136739;27;20176;-62
2021/05/30 04:00:18;;;;;;;11.48;5.30;;;11.10;99.90;;;;;;5118286;27;20170;-63
2021/05/30 04:02:46;;;;;;;12.60;5.10;;;11.20;99.90;;;;;;5136419;27;20175;-63
2021/05/30 04:05:12;;;;;;;13.98;5.40;;;11.20;99.90;;;;;;5118378;27;20164;-62
2021/05/30 04:07:39;;;;;;;8.40;5.13;;;11.30;99.90;;;;;;5136217;27;20186;-63
2021/05/30 04:10:10;;;;;;;9.23;4.97;;;11.30;99.90;;;;;;5135912;27;20175;-63
2021/05/30 04:12:40;;;;;;;7.72;5.03;;;11.30;99.90;;;;;;5136183;27;20167;-63
2021/05/30 04:15:08;;;;;;;9.23;5.50;;;11.40;99.90;;;;;;5135858;27;20175;-63
2021/05/30 04:17:34;;;;;;;8.60;5.82;;;11.50;99.90;;;;;;5135952;27;20196;-63
2021/05/30 04:20:00;;;;;;;12.20;5.72;;;11.60;99.90;;;;;;5136324;27;20637;-63
2021/05/30 04:22:26;;;;;;;10.30;5.00;;;11.60;99.90;;;;;;5135919;27;20180;-63
2021/05/30 04:24:52;;;;;;;8.80;5.43;;;11.70;99.90;;;;;;5136244;27;20172;-63
2021/05/30 04:27:18;;;;;;;7.78;5.47;;;11.90;99.90;;;;;;5136132;27;20168;-63
2021/05/30 04:29:45;;;;;;;8.90;5.20;;;11.90;99.90;;;;;;5136039;27;20526;-63
2021/05/30 04:32:11;;;;;;;8.13;5.03;;;12.00;99.90;;;;;;5136070;27;20172;-63
2021/05/30 04:34:37;;;;;;;10.18;5.10;;;12.10;99.90;;;;;;5134790;27;20216;-63
2021/05/30 04:37:04;;;;;;;15.60;5.32;;;12.20;99.90;;;;;;5136018;27;20231;-64
2021/05/30 04:39:33;;;;;;;10.43;5.25;;;12.20;99.90;;;;;;5135816;27;20172;-64
2021/05/30 04:41:59;;;;;;;10.52;5.18;;;12.30;99.90;;;;;;5135846;27;20176;-63
2021/05/30 04:44:26;;;;;;;9.88;5.55;;;12.40;99.90;;;;;;5135515;27;20168;-63
2021/05/30 04:46:52;;;;;;;8.50;5.30;;;12.50;99.90;;;;;;5135148;27;20172;-63
2021/05/30 04:49:18;;;;;;;11.15;4.90;;;12.60;99.90;;;;;;5117032;27;20651;-63
2021/05/30 04:51:44;;;;;;;9.85;5.40;;;12.70;99.90;;;;;;5135370;27;20172;-63
2021/05/30 04:54:10;;;;;;;8.43;5.35;;;12.80;99.90;;;;;;5135544;27;20168;-63
2021/05/30 04:56:36;;;;;;;10.70;5.32;;;12.80;99.90;;;;;;5116022;27;20222;-63
2021/05/30 04:59:02;;;;;;;14.23;5.35;;;12.90;99.90;;;;;;5135532;27;20175;-63
2021/05/30 05:01:28;;;;;;;7.68;5.25;;;12.90;99.90;;;;;;5135291;27;20183;-63
2021/05/30 05:03:54;;;;;;;13.60;5.20;;;13.00;99.90;;;;;;5116977;27;20191;-64
2021/05/30 05:06:20;;;;;;;11.82;5.20;;;13.10;99.90;;;;;;5135298;27;20171;-63
2021/05/30 05:08:49;;;;;;;13.95;5.25;;;13.20;99.90;;;;;;5135318;27;20175;-63
2021/05/30 05:11:15;;;;;;;7.13;4.95;;;13.30;99.90;;;;;;5135399;27;20172;-63
2021/05/30 05:13:41;;;;;;;8.63;5.00;;;13.30;99.90;;;;;;5134134;27;20180;-63
2021/05/30 05:16:07;;;;;;;9.57;5.20;;;13.40;99.90;;;;;;5135110;27;20204;-63
2021/05/30 05:18:33;;;;;;;8.90;5.57;;;13.40;99.90;;;;;;5135019;27;20168;-63
2021/05/30 05:21:00;;;;;;;10.93;5.00;;;13.40;99.90;;;;;;5135108;27;20171;-63
2021/05/30 05:23:26;;;;;;;9.30;4.90;;;13.50;99.90;;;;;;5135054;27;20164;-63
2021/05/30 05:25:53;;;;;;;10.35;5.07;;;13.60;99.90;;;;;;5116358;27;20176;-63
2021/05/30 05:28:20;;;;;;;7.53;5.13;;;13.60;99.90;;;;;;5134980;27;20501;-64
2021/05/30 05:30:47;;;;;;;10.32;4.90;;;13.70;99.90;;;;;;5115897;27;20544;-63
2021/05/30 05:33:13;;;;;;;10.73;4.97;;;13.80;99.90;;;;;;5134772;27;20183;-64
2021/05/30 05:35:39;;;;;;;8.57;5.35;;;13.90;99.90;;;;;;5134207;27;20594;-64
2021/05/30 05:38:05;;;;;;;7.97;5.20;;;13.90;99.90;;;;;;5134742;27;20527;-64
2021/05/30 05:40:31;;;;;;;6.93;4.70;;;14.00;99.90;;;;;;5134627;27;20177;-63
2021/05/30 05:42:57;;;;;;;11.77;5.22;;;14.00;99.90;;;;;;5134212;27;20172;-64
2021/05/30 05:45:23;;;;;;;8.27;5.00;;;14.10;99.90;;;;;;5115373;27;20187;-63
2021/05/30 05:47:50;;;;;;;6.60;4.80;;;14.10;99.90;;;;;;5134155;27;20620;-63
2021/05/30 05:50:18;;;;;;;8.23;4.40;;;14.30;99.90;;;;;;5134561;27;20651;-64
2021/05/30 05:52:44;;;;;;;7.00;5.03;;;14.30;99.90;;;;;;5133424;27;20502;-64
2021/05/30 05:55:11;;;;;;;8.88;4.57;;;14.40;99.90;;;;;;5134092;27;20172;-65
2021/05/30 05:57:37;;;;;;;6.53;4.72;;;14.50;99.90;;;;;;5133480;27;20187;-63
2021/05/30 06:00:08;;;;;;;7.70;4.70;;;14.50;99.90;;;;;;5134942;27;20531;-64
2021/05/30 06:02:34;;;;;;;6.97;4.38;;;14.60;99.90;;;;;;5133962;27;20549;-64
2021/05/30 06:05:00;;;;;;;6.18;4.13;;;14.80;99.90;;;;;;5134479;27;20175;-64
2021/05/30 06:07:26;;;;;;;7.55;4.75;;;15.00;99.90;;;;;;5133638;27;20186;-64
2021/05/30 06:09:52;;;;;;;7.32;4.43;;;15.00;99.90;;;;;;5115665;27;20164;-64
2021/05/30 06:12:18;;;;;;;7.78;4.65;;;15.10;99.90;;;;;;5134253;27;20183;-63
2021/05/30 06:14:45;;;;;;;7.03;4.38;;;15.20;99.90;;;;;;5133536;27;20184;-64
2021/05/30 06:17:12;;;;;;;4.88;3.63;;;15.20;99.90;;;;;;5115909;27;20214;-64
2021/05/30 06:19:38;;;;;;;4.85;3.50;;;15.40;99.90;;;;;;5133944;27;20540;-64
2021/05/30 06:22:05;;;;;;;8.13;4.20;;;15.50;99.90;;;;;;5133133;27;20540;-64
2021/05/30 06:24:32;;;;;;;6.50;3.75;;;15.60;99.90;;;;;;5133065;27;20180;-64
2021/05/30 06:26:58;;;;;;;10.13;3.63;;;15.70;99.90;;;;;;5133571;27;20179;-63
2021/05/30 06:29:24;;;;;;;5.75;3.78;;;15.80;99.90;;;;;;5115496;27;20168;-63
2021/05/30 06:31:50;;;;;;;11.25;3.47;;;15.80;99.90;;;;;;5133370;27;20180;-63
2021/05/30 06:34:16;;;;;;;5.60;3.33;;;15.90;99.90;;;;;;5133617;27;20216;-64
2021/05/30 06:36:43;;;;;;;5.97;3.70;;;15.90;99.90;;;;;;5133391;27;20686;-64
2021/05/30 06:39:10;;;;;;;5.40;3.60;;;16.10;99.90;;;;;;5133616;27;20167;-64
2021/05/30 06:41:37;;;;;;;7.10;3.50;;;16.20;99.90;;;;;;5132869;27;20195;-64
2021/05/30 06:44:03;;;;;;;4.07;3.00;;;16.30;99.90;;;;;;5133045;27;20223;-64
2021/05/30 06:46:30;;;;;;;5.63;3.42;;;16.30;99.90;;;;;;5115323;28;20160;-64
2021/05/30 06:48:56;;;;;;;4.55;3.53;;;16.40;99.90;;;;;;5132797;28;20187;-63
2021/05/30 06:51:26;;;;;;;6.97;3.67;;;16.50;99.90;;;;;;5133355;28;20175;-64
2021/05/30 06:53:52;;;;;;;6.15;3.33;;;16.70;99.90;;;;;;5132681;28;20188;-64
2021/05/30 06:56:18;;;;;;;4.40;3.03;;;17.00;99.90;;;;;;5133488;28;20678;-63
2021/05/30 06:58:45;;;;;;;5.25;3.35;;;17.20;99.90;;;;;;5114825;28;20171;-63
2021/05/30 07:01:12;;;;;;;6.60;2.90;;;17.50;99.90;;;;;;5133555;28;20164;-63
2021/05/30 07:03:38;;;;;;;3.63;2.95;;;17.70;99.90;;;;;;5133353;28;20183;-64
2021/05/30 07:06:05;;;;;;;4.57;3.13;;;17.90;99.90;;;;;;5132588;28;20179;-64
2021/05/30 07:08:31;;;;;;;5.68;3.50;;;18.00;98.00;;;;;;5115306;27;20164;-63
2021/05/30 07:10:57;;;;;;;5.38;2.58;;;18.30;98.10;;;;;;5137344;27;20179;-63
2021/05/30 07:13:23;;;;;;;6.05;2.40;;;18.30;96.70;;;;;;5136446;27;20190;-65
2021/05/30 07:15:51;;;;;;;3.42;2.70;;;18.50;96.70;;;;;;5137263;27;20164;-63
2021/05/30 07:18:18;;;;;;;3.70;2.58;;;18.70;96.80;;;;;;5137419;27;20545;-64
2021/05/30 07:20:45;;;;;;;6.95;3.33;;;18.90;95.80;;;;;;5137073;27;20238;-63
2021/05/30 07:23:11;;;;;;;4.35;2.58;;;19.10;91.60;;;;;;5119113;27;20176;-64
2021/05/30 07:25:37;;;;;;;3.90;2.20;;;19.10;90.80;;;;;;5137300;27;20164;-64
2021/05/30 07:28:04;;;;;;;3.10;2.40;;;19.20;91.00;;;;;;5101181;27;20191;-63
2021/05/30 07:30:30;;;;;;;8.60;2.72;;;19.20;90.10;;;;;;5137218;27;20504;-64
2021/05/30 07:32:56;;;;;;;7.80;2.35;;;19.30;89.70;;;;;;5137069;27;20191;-64
2021/05/30 07:35:23;;;;;;;5.22;2.80;;;19.50;90.00;;;;;;5136755;27;20215;-64
2021/05/30 07:37:49;;;;;;;4.32;2.45;;;19.50;86.10;;;;;;5136715;27;20208;-64
2021/05/30 07:40:15;;;;;;;3.38;2.50;;;19.70;89.70;;;;;;5137079;27;20643;-63
2021/05/30 07:42:41;;;;;;;4.57;2.58;;;20.00;87.60;;;;;;5101134;27;20192;-63
2021/05/30 07:45:08;;;;;;;3.80;2.30;;;19.90;86.40;;;;;;5136463;27;20164;-64
2021/05/30 07:47:34;;;;;;;5.63;2.40;;;19.90;87.80;;;;;;5136580;27;20187;-65
2021/05/30 07:50:00;;;;;;;4.28;2.15;;;19.80;82.40;;;;;;5136428;27;20172;-63
2021/05/30 07:52:26;;;;;;;6.70;2.30;;;19.80;78.80;;;;;;5136969;27;20179;-63
2021/05/30 07:54:52;;;;;;;4.45;2.08;;;19.90;85.20;;;;;;5136121;27;20180;-63
2021/05/30 07:57:18;;;;;;;3.20;2.10;;;20.00;80.70;;;;;;5136670;27;20586;-63
2021/05/30 07:59:44;;;;;;;3.42;1.95;;;20.20;79.10;;;;;;5136672;27;20171;-64
2021/05/30 08:02:10;;;;;;;5.47;2.10;;;20.40;72.50;;;;;;5136379;27;20520;-65
2021/05/30 08:04:36;;;;;;;6.93;1.98;;;20.60;73.10;;;;;;5136654;27;20176;-63
2021/05/30 08:07:03;;;;;;;2.90;1.75;;;20.80;73.40;;;;;;5135744;27;20566;-63
2021/05/30 08:09:29;;;;;;;2.88;2.00;;;21.10;77.00;;;;;;5136478;27;20172;-64
2021/05/30 08:11:57;;;;;;;4.78;2.10;;;21.50;71.90;;;;;;5135444;27;20206;-63
2021/05/30 08:14:24;;;;;;;3.55;1.95;;;21.60;77.10;;;;;;5135889;27;20175;-64
2021/05/30 08:16:50;;;;;;;4.43;1.98;;;21.60;72.30;;;;;;5136030;27;20207;-64
2021/05/30 08:19:16;;;;;;;4.95;2.55;;;21.60;72.70;;;;;;5117289;27;20187;-63
2021/05/30 08:21:43;;;;;;;8.10;2.78;;;21.50;74.00;;;;;;5135254;27;20180;-63
2021/05/30 08:24:09;;;;;;;5.25;2.85;;;21.90;75.90;;;;;;5135885;27;20171;-64
2021/05/30 08:26:36;;;;;;;4.40;2.65;;;22.30;79.20;;;;;;5100302;27;20175;-64
2021/05/30 08:29:02;;;;;;;8.20;3.13;;;22.80;79.60;;;;;;5136036;27;20526;-64
2021/05/30 08:31:28;;;;;;;6.10;2.85;;;23.20;77.80;;;;;;5136007;27;20657;-64
2021/05/30 08:33:54;;;;;;;7.55;2.90;;;23.40;77.90;;;;;;5116894;27;20231;-63
2021/05/30 08:36:20;;;;;;;3.97;2.88;;;23.90;74.80;;;;;;5135216;27;20187;-64
2021/05/30 08:38:46;;;;;;;4.07;2.70;;;24.30;74.40;;;;;;5135426;27;20188;-64
2021/05/30 08:41:12;;;;;;;4.45;2.60;;;24.90;69.50;;;;;;5135400;27;20180;-63
2021/05/30 08:43:38;;;;;;;3.63;2.50;;;25.30;71.10;;;;;;5135123;27;20183;-64
2021/05/30 08:46:04;;;;;;;3.08;2.38;;;25.60;68.20;;;;;;5135297;27;20500;-64
2021/05/30 08:48:31;;;;;;;6.70;2.45;;;25.90;68.80;;;;;;5115503;27;20191;-63
2021/05/30 08:51:04;;;;;;;4.85;2.25;;;25.90;65.50;;;;;;5134107;27;20184;-63
2021/05/30 08:53:31;;;;;;;3.67;2.67;;;26.10;64.60;;;;;;5135670;27;20159;-64
2021/05/30 08:55:57;;;;;;;3.88;2.30;;;26.00;63.50;;;;;;5116088;27;20195;-63
2021/05/30 08:58:42;;;;;;;2.63;2.00;;;26.20;61.40;;;;;;5135447;27;20207;-63
2021/05/30 09:01:09;;;;;;;4.82;2.40;;;26.50;61.90;;;;;;5116546;27;20187;-64
2021/05/30 09:03:49;;;;;;;2.72;2.17;;;26.70;60.20;;;;;;5135725;27;20639;-64
2021/05/30 09:06:16;;;;;;;4.60;2.10;;;26.60;60.50;;;;;;5116985;27;20206;-63
2021/05/30 09:08:42;;;;;;;6.07;2.47;;;27.20;61.20;;;;;;5100193;27;20168;-64
2021/05/30 09:11:08;;;;;;;3.67;2.30;;;27.10;59.60;;;;;;5099819;27;20168;-64
2021/05/30 09:13:54;;;;;;;3.92;2.35;;;27.40;61.20;;;;;;5134963;27;20164;-65
2021/05/30 09:16:21;;;;;;;5.15;2.10;;;27.10;57.40;;;;;;5135083;27;20159;-63
2021/05/30 09:18:48;;;;;;;7.00;2.30;;;27.30;58.00;;;;;;5135006;27;20567;-64
2021/05/30 09:21:14;;;;;;;3.03;2.00;;;27.50;56.10;;;;;;5134804;27;20187;-65
2021/05/30 09:23:41;;;;;;;3.60;2.33;;;27.70;53.70;;;;;;5134438;27;20195;-63
2021/05/30 09:26:21;;;;;;;4.35;2.25;;;27.40;56.20;;;;;;5116312;27;20168;-64
2021/05/30 09:29:10;;;;;;;6.43;1.95;;;27.50;54.80;;;;;;5134766;27;20161;-64
2021/05/30 09:31:58;;;;;;;7.05;2.53;;;28.10;56.10;;;;;;5134509;27;20164;-63
2021/05/30 09:34:29;;;;;;;3.15;2.33;;;27.70;51.20;;;;;;5134380;27;20906;-65
2021/05/30 09:36:55;;;;;;;3.15;1.90;;;28.00;52.60;;;;;;5134546;27;20202;-64
2021/05/30 09:39:40;;;;;;;3.05;2.08;;;28.10;52.30;;;;;;5134579;27;20174;-64
2021/05/30 09:42:25;;;;;;;2.67;1.98;;;27.70;50.20;;;;;;5134243;27;20175;-64
2021/05/30 09:44:57;;;;;;;4.28;2.00;;;26.80;50.20;;;;;;5134141;27;20186;-65
2021/05/30 09:47:44;;;;;;;4.40;1.95;;;25.60;50.60;;;;;;5116095;27;20168;-65
2021/05/30 09:50:12;;;;;;;3.08;1.80;;;24.90;49.30;;;;;;5134145;27;20180;-64
2021/05/30 09:52:42;;;;;;;4.63;1.90;;;25.00;53.60;;;;;;5134576;27;20167;-64
2021/05/30 09:55:22;;;;;;;5.43;2.03;;;25.30;55.30;;;;;;5132562;27;20180;-64
2021/05/30 09:58:16;;;;;;;6.45;2.20;;;25.80;55.20;;;;;;5134261;27;20548;-63
2021/05/30 10:00:44;;;;;;;3.80;2.25;;;25.70;50.50;;;;;;5134341;27;20612;-64
2021/05/30 10:03:10;;;;;;;3.20;2.15;;;25.50;53.20;;;;;;5098678;27;20172;-65
2021/05/30 10:05:36;;;;;;;4.95;2.20;;;25.10;49.80;;;;;;5115861;27;20623;-64
2021/05/30 10:08:03;;;;;;;6.03;2.40;;;24.90;52.90;;;;;;5133940;27;20167;-65
2021/05/30 10:10:29;;;;;;;5.53;2.38;;;24.50;50.70;;;;;;5134073;27;20651;-65
2021/05/30 10:12:56;;;;;;;2.97;2.30;;;24.30;50.10;;;;;;5133922;27;20168;-62
2021/05/30 10:15:22;;;;;;;3.92;2.60;;;24.40;53.40;;;;;;5133345;27;20659;-64
2021/05/30 10:17:50;;;;;;;3.58;2.13;;;25.00;52.00;;;;;;5133898;27;20648;-63
2021/05/30 10:20:19;;;;;;;4.97;2.42;;;25.00;50.70;;;;;;5115368;27;20250;-63
2021/05/30 10:22:49;;;;;;;4.07;1.77;;;25.30;51.40;;;;;;5116245;27;20168;-63
2021/05/30 10:25:23;;;;;;;4.15;2.28;;;25.50;51.40;;;;;;5132776;27;20183;-63
2021/05/30 10:28:18;;;;;;;3.30;2.15;;;25.50;48.60;;;;;;5116701;27;20519;-64
2021/05/30 10:30:51;;;;;;;2.58;1.70;;;25.70;50.90;;;;;;5133896;27;20171;-64
2021/05/30 10:33:18;;;;;;;2.95;1.83;;;26.10;48.40;;;;;;5133752;27;20191;-64
2021/05/30 10:35:46;;;;;;;6.95;1.90;;;26.20;48.60;;;;;;5133608;27;20207;-63
2021/05/30 10:38:33;;;;;;;4.10;1.80;;;26.60;47.90;;;;;;5115331;28;20206;-64
2021/05/30 10:41:12;;;;;;;6.68;2.45;;;26.50;47.70;;;;;;5133560;27;20168;-63
2021/05/30 10:43:38;;;;;;;4.32;1.92;;;26.50;48.10;;;;;;5133004;27;20160;-63
2021/05/30 10:46:05;;;;;;;3.45;2.10;;;26.20;51.10;;;;;;5133331;27;20168;-63
2021/05/30 10:48:31;;;;;;;3.97;2.20;;;26.40;51.80;;;;;;5133716;27;20535;-64
2021/05/30 10:53:44;;;;;;;4.00;1.80;;;25.50;50.40;;;;;;5140297;27;20159;-64
2021/05/30 10:56:19;;;;;;;5.25;2.45;;;25.00;49.50;;;;;;5133364;28;20198;-64
2021/05/30 10:59:04;;;;;;;5.00;2.50;;;24.50;50.80;;;;;;5133768;28;20195;-63
2021/05/30 11:04:27;;;;;;;6.43;2.15;;;24.20;58.30;;;;;;5133186;27;20245;-64
2021/05/30 11:06:56;;;;;;;7.05;2.28;;;23.90;52.80;;;;;;5133732;28;20159;-65
2021/05/30 11:09:23;;;;;;;4.45;2.38;;;23.50;55.10;;;;;;5133377;28;20176;-64
2021/05/30 11:12:17;;;;;;;3.85;2.20;;;24.00;59.30;;;;;;5133276;28;20168;-65
2021/05/30 11:15:08;;;;;;;4.40;2.28;;;24.30;57.70;;;;;;5132819;28;20164;-64
2021/05/30 11:17:34;;;;;;;3.45;2.20;;;24.70;56.10;;;;;;5133142;28;20211;-64
2021/05/30 11:20:00;;;;;;;4.50;2.17;;;25.30;54.50;;;;;;5133436;28;20175;-64
2021/05/30 11:22:27;;;;;;;2.22;1.73;;;25.60;56.40;;;;;;5132814;28;20176;-64
2021/05/30 11:24:57;;;;;;;2.70;1.58;;;25.30;51.90;;;;;;5114872;28;20180;-64
2021/05/30 11:27:23;;;;;;;3.83;1.77;;;24.60;51.50;;;;;;5132939;28;20530;-64
2021/05/30 11:29:50;;;;;;;2.08;1.40;;;24.70;51.30;;;;;;5133108;28;20175;-64
2021/05/30 11:32:16;;;;;;;3.13;1.77;;;25.00;51.90;;;;;;5133073;28;20179;-64
2021/05/30 11:34:42;;;;;;;2.70;1.73;;;24.70;52.70;;;;;;5101666;28;20217;-63
2021/05/30 11:37:12;;;;;;;2.83;1.70;;;24.90;53.40;;;;;;5073870;28;20193;-64
2021/05/30 11:39:38;;;;;;;1.98;1.50;;;24.90;53.50;;;;;;5092009;28;20543;-63
2021/05/30 11:42:05;;;;;;;3.50;1.50;;;25.00;55.20;;;;;;5092188;28;20170;-65
2021/05/30 11:44:32;;;;;;;3.72;1.98;;;24.40;52.70;;;;;;5091724;28;20641;-65
2021/05/30 11:47:00;;;;;;;2.67;1.85;;;23.60;55.40;;;;;;5092149;28;20177;-65
2021/05/30 11:49:33;;;;;;;4.25;1.67;;;23.50;58.90;;;;;;5090228;28;20192;-65
2021/05/30 11:52:13;;;;;;;7.97;2.45;;;23.00;56.30;;;;;;5091935;28;20653;-65
2021/05/30 11:54:42;;;;;;;3.25;2.15;;;22.90;56.60;;;;;;5092052;28;20173;-64
2021/05/30 11:57:12;;;;;;;3.35;2.00;;;23.00;55.70;;;;;;5093845;28;20208;-64
2021/05/30 11:59:44;;;;;;;3.55;2.00;;;23.00;53.60;;;;;;5095692;28;20173;-65
2021/05/30 12:02:33;;;;;;;3.15;2.17;;;22.60;53.50;;;;;;5094267;28;20173;-64
2021/05/30 12:05:06;;;;;;;4.72;2.10;;;22.70;55.40;;;;;;5095767;28;20157;-64
2021/05/30 12:07:32;;;;;;;5.10;2.13;;;22.90;56.60;;;;;;5094394;28;20176;-64
2021/05/30 12:10:17;;;;;;;3.40;1.90;;;22.80;53.60;;;;;;5095657;28;20173;-64
2021/05/30 12:12:47;;;;;;;3.35;2.00;;;22.70;53.80;;;;;;5095572;28;20618;-64
2021/05/30 12:15:19;;;;;;;4.20;2.30;;;22.30;54.00;;;;;;5094230;28;20626;-64
2021/05/30 12:17:54;;;;;;;7.32;2.35;;;22.70;57.80;;;;;;5095270;28;20230;-63
2021/05/30 12:20:22;;;;;;;2.97;1.88;;;22.70;53.90;;;;;;5095022;28;20526;-65
2021/05/30 12:22:48;;;;;;;4.07;1.95;;;22.60;54.10;;;;;;5095186;28;20184;-65
2021/05/30 12:25:15;;;;;;;5.70;2.70;;;22.30;51.90;;;;;;5094695;28;20181;-64
2021/05/30 12:27:41;;;;;;;3.47;2.08;;;22.20;56.10;;;;;;5094842;28;20193;-64
2021/05/30 12:30:09;;;;;;;3.03;1.75;;;22.30;54.90;;;;;;5095173;28;20173;-64
2021/05/30 12:32:36;;;;;;;3.35;1.67;;;22.30;51.20;;;;;;5093531;28;20189;-64
2021/05/30 12:35:02;;;;;;;4.55;1.80;;;22.40;54.90;;;;;;5076855;28;20209;-64
2021/05/30 12:37:44;;;;;;;6.05;1.70;;;22.60;52.80;;;;;;5094711;28;20201;-64
2021/05/30 12:40:11;;;;;;;12.50;2.28;;;22.70;52.80;;;;;;5095190;28;20164;-65
2021/05/30 12:42:39;;;;;;;3.53;1.92;;;22.50;49.70;;;;;;5094618;28;20158;-65
2021/05/30 12:45:08;;;;;;;5.18;1.90;;;22.40;50.20;;;;;;5094564;28;20184;-65
2021/05/30 12:47:42;;;;;;;3.00;1.95;;;22.10;50.60;;;;;;5094529;28;20222;-64
2021/05/30 12:50:10;;;;;;;2.85;1.90;;;22.10;53.30;;;;;;5094954;28;20598;-64
2021/05/30 12:52:46;;;;;;;4.30;1.70;;;22.20;53.90;;;;;;5094542;28;20180;-64
2021/05/30 12:55:13;;;;;;;4.43;2.00;;;22.20;53.50;;;;;;5094418;28;20149;-65